Time;durP1;ratioP1;P1;durP2;ratioP2;P2;SDS_P1;SDS_P2;PMS_P1;PMS_P2;Temp;Humidity;BMP_temperature;BMP_pressure;BME280_temperature;BME280_humidity;BME280_pressure;Samples;Min_cycle;Max_cycle;Signal;HPM_P1;HPM_P2
2023/07/22 00:02:08;;;;;;;;;;;13.80;99.90;;;;;;5147684;27;19914;-44
2023/07/22 00:04:33;;;;;;;;;;;13.70;99.90;;;;;;5135638;27;19912;-42
2023/07/22 00:06:59;;;;;;;;;;;13.60;99.90;;;;;;5136277;27;19981;-43
2023/07/22 00:09:24;;;;;;;;;;;13.60;99.90;;;;;;5136049;27;20261;-43
2023/07/22 00:11:50;;;;;;;;;;;13.60;99.90;;;;;;5135606;27;20283;-45
2023/07/22 00:14:16;;;;;;;;;;;13.50;99.90;;;;;;5136001;27;19975;-43
2023/07/22 00:16:41;;;;;;;;;;;13.50;99.90;;;;;;5135815;27;19907;-44
2023/07/22 00:19:07;;;;;;;;;;;13.50;99.90;;;;;;5135273;27;19908;-43
2023/07/22 00:21:34;;;;;;;;;;;13.40;99.90;;;;;;5135735;27;19908;-44
2023/07/22 00:24:00;;;;;;;;;;;13.40;99.90;;;;;;5135668;27;20369;-44
2023/07/22 00:26:25;;;;;;;;;;;13.40;99.90;;;;;;5135326;27;19908;-44
2023/07/22 00:28:51;;;;;;;;;;;13.30;99.90;;;;;;5135796;27;20362;-46
2023/07/22 00:31:16;;;;;;;;;;;13.30;99.90;;;;;;5134846;27;19952;-43
2023/07/22 00:33:42;;;;;;;;;;;13.30;99.90;;;;;;5135529;27;20010;-43
2023/07/22 00:36:07;;;;;;;;;;;13.30;99.90;;;;;;5135713;27;19954;-42
2023/07/22 00:38:33;;;;;;;;;;;13.30;99.90;;;;;;5134676;27;19908;-44
2023/07/22 00:40:58;;;;;;;;;;;13.30;99.90;;;;;;5135364;27;19907;-42
2023/07/22 00:43:25;;;;;;;;;;;13.30;99.90;;;;;;5135283;27;20353;-42
2023/07/22 00:45:51;;;;;;;;;;;13.30;99.90;;;;;;5134866;27;20346;-42
2023/07/22 00:48:17;;;;;;;;;;;13.30;99.90;;;;;;5135262;27;19962;-46
2023/07/22 00:50:43;;;;;;;;;;;13.30;99.90;;;;;;5135283;27;19994;-47
2023/07/22 00:53:09;;;;;;;;;;;13.20;99.90;;;;;;5134708;27;20010;-42
2023/07/22 00:55:35;;;;;;;;;;;13.20;99.90;;;;;;5135268;27;19916;-42
2023/07/22 00:58:01;;;;;;;;;;;13.10;99.90;;;;;;5135013;27;19907;-49
2023/07/22 01:00:26;;;;;;;;;;;13.20;99.90;;;;;;5134530;27;19930;-45
2023/07/22 01:02:52;;;;;;;;;;;13.10;99.90;;;;;;5148382;27;19915;-44
2023/07/22 01:05:17;;;;;;;;;;;13.10;99.90;;;;;;5154880;27;20346;-42
2023/07/22 01:07:43;;;;;;;;;;;13.20;99.90;;;;;;5155195;27;19907;-44
2023/07/22 01:10:09;;;;;;;;;;;13.20;99.90;;;;;;5155330;27;19911;-44
2023/07/22 01:12:35;;;;;;;;;;;13.20;99.90;;;;;;5155430;27;19914;-45
2023/07/22 01:15:03;;;;;;;;;;;13.20;99.90;;;;;;5155094;27;20326;-44
2023/07/22 01:17:29;;;;;;;;;;;13.20;99.90;;;;;;5155485;27;19911;-47
2023/07/22 01:19:55;;;;;;;;;;;13.10;99.90;;;;;;5154932;27;19907;-44
2023/07/22 01:22:21;;;;;;;;;;;13.10;99.90;;;;;;5154961;27;19961;-43
2023/07/22 01:24:46;;;;;;;;;;;13.10;99.90;;;;;;5155472;27;19934;-42
2023/07/22 01:27:13;;;;;;;;;;;13.10;99.90;;;;;;5155193;27;19918;-43
2023/07/22 01:29:38;;;;;;;;;;;13.10;99.90;;;;;;5154728;27;20279;-43
2023/07/22 01:32:05;;;;;;;;;;;13.00;99.90;;;;;;5154841;27;19988;-43
2023/07/22 01:34:31;;;;;;;;;;;13.00;99.90;;;;;;5154381;27;19922;-43
2023/07/22 01:36:57;;;;;;;;;;;13.00;99.90;;;;;;5155238;27;19907;-42
2023/07/22 01:39:22;;;;;;;;;;;13.10;99.90;;;;;;5155203;27;20270;-44
2023/07/22 01:41:48;;;;;;;;;;;13.00;99.90;;;;;;5153777;27;20002;-42
2023/07/22 01:44:14;;;;;;;;;;;13.00;99.90;;;;;;5155014;27;20254;-45
2023/07/22 01:46:39;;;;;;;;;;;13.00;99.90;;;;;;5154892;27;20007;-44
2023/07/22 01:49:08;;;;;;;;;;;12.90;99.90;;;;;;5154518;27;19950;-43
2023/07/22 01:51:34;;;;;;;;;;;12.90;99.90;;;;;;5140184;27;19998;-43
2023/07/22 01:53:59;;;;;;;;;;;12.80;99.90;;;;;;5133967;27;19999;-44
2023/07/22 01:56:25;;;;;;;;;;;12.80;99.90;;;;;;5133530;27;19911;-45
2023/07/22 01:58:50;;;;;;;;;;;12.80;99.90;;;;;;5135179;27;20014;-44
2023/07/22 02:01:16;;;;;;;;;;;12.90;99.90;;;;;;5134130;27;20072;-43
2023/07/22 02:03:42;;;;;;;;;;;12.80;99.90;;;;;;5133510;27;19976;-43
2023/07/22 02:06:07;;;;;;;;;;;12.80;99.90;;;;;;5134080;27;19916;-44
2023/07/22 02:08:33;;;;;;;;;;;12.80;99.90;;;;;;5133610;27;19908;-44
2023/07/22 02:11:03;;;;;;;;;;;12.90;99.90;;;;;;5153564;27;20277;-44
2023/07/22 02:13:29;;;;;;;;;;;12.90;99.90;;;;;;5154487;27;19959;-43
2023/07/22 02:15:55;;;;;;;;;;;12.90;99.90;;;;;;5154240;27;19918;-44
2023/07/22 02:18:20;;;;;;;;;;;12.80;99.90;;;;;;5154057;27;19908;-46
2023/07/22 02:20:45;;;;;;;;;;;12.80;99.90;;;;;;5154243;27;19911;-44
2023/07/22 02:23:11;;;;;;;;;;;12.80;99.90;;;;;;5154250;27;19914;-42
2023/07/22 02:25:36;;;;;;;;;;;12.80;99.90;;;;;;5154231;27;20311;-42
2023/07/22 02:28:02;;;;;;;;;;;12.70;99.90;;;;;;5154499;27;19984;-44
2023/07/22 02:30:27;;;;;;;;;;;12.70;99.90;;;;;;5153875;27;20380;-43
2023/07/22 02:32:53;;;;;;;;;;;12.60;99.90;;;;;;5153940;27;20353;-43
2023/07/22 02:35:18;;;;;;;;;;;12.60;99.90;;;;;;5153942;27;19919;-43
2023/07/22 02:37:44;;;;;;;;;;;12.60;99.90;;;;;;5153753;27;19907;-45
2023/07/22 02:40:12;;;;;;;;;;;12.60;99.90;;;;;;5153949;27;19933;-44
2023/07/22 02:42:38;;;;;;;;;;;12.60;99.90;;;;;;5153475;27;20072;-46
2023/07/22 02:45:04;;;;;;;;;;;12.60;99.90;;;;;;5153760;27;20071;-42
2023/07/22 02:47:32;;;;;;;;;;;12.60;99.90;;;;;;5154197;27;20002;-42
2023/07/22 02:49:57;;;;;;;;;;;12.60;99.90;;;;;;5153727;27;20384;-42
2023/07/22 02:52:23;;;;;;;;;;;12.60;99.90;;;;;;5153689;27;19907;-45
2023/07/22 02:55:08;;;;;;;;;;;12.70;99.90;;;;;;5154235;27;19922;-43
2023/07/22 02:57:34;;;;;;;;;;;12.70;99.90;;;;;;5154046;27;19911;-43
2023/07/22 03:00:02;;;;;;;;;;;12.70;99.90;;;;;;5153377;27;19965;-42
2023/07/22 03:02:28;;;;;;;;;;;12.70;99.90;;;;;;5154133;27;19915;-43
2023/07/22 03:04:54;;;;;;;;;;;12.70;99.90;;;;;;5153972;27;19914;-43
2023/07/22 03:07:20;;;;;;;;;;;12.80;99.90;;;;;;5153507;27;20270;-44
2023/07/22 03:09:46;;;;;;;;;;;12.80;99.90;;;;;;5145211;27;19919;-44
2023/07/22 03:12:12;;;;;;;;;;;12.80;99.90;;;;;;5133083;28;19911;-42
2023/07/22 03:14:38;;;;;;;;;;;12.80;99.90;;;;;;5132845;28;19950;-45
2023/07/22 03:17:03;;;;;;;;;;;12.90;99.90;;;;;;5133270;28;20321;-44
2023/07/22 03:19:29;;;;;;;;;;;12.90;99.90;;;;;;5153055;27;19915;-43
2023/07/22 03:21:55;;;;;;;;;;;12.90;99.90;;;;;;5153454;27;19913;-43
2023/07/22 03:24:20;;;;;;;;;;;12.90;99.90;;;;;;5153880;27;19907;-44
2023/07/22 03:26:46;;;;;;;;;;;12.90;99.90;;;;;;5153686;27;19907;-43
2023/07/22 03:29:11;;;;;;;;;;;12.80;99.90;;;;;;5155119;27;19918;-45
2023/07/22 03:31:37;;;;;;;;;;;12.80;99.90;;;;;;5157651;27;19908;-45
2023/07/22 03:34:02;;;;;;;;;;;12.80;99.90;;;;;;5156884;27;19911;-45
2023/07/22 03:36:28;;;;;;;;;;;12.80;99.90;;;;;;5157608;27;19918;-43
2023/07/22 03:38:53;;;;;;;;;;;12.80;99.90;;;;;;5134674;27;19998;-44
2023/07/22 03:41:19;;;;;;;;;;;12.80;99.90;;;;;;5121958;27;19924;-44
2023/07/22 03:43:44;;;;;;;;;;;12.80;99.90;;;;;;5116198;28;19953;-46
2023/07/22 03:46:10;;;;;;;;;;;12.80;99.90;;;;;;5115722;28;19907;-43
2023/07/22 03:48:35;;;;;;;;;;;12.90;99.90;;;;;;5126856;27;19911;-43
2023/07/22 03:51:03;;;;;;;;;;;12.90;99.90;;;;;;5135871;27;20176;-44
2023/07/22 03:53:28;;;;;;;;;;;12.90;99.90;;;;;;5136305;27;20293;-44
2023/07/22 03:55:54;;;;;;;;;;;13.00;99.90;;;;;;5135926;27;19922;-43
2023/07/22 03:58:19;;;;;;;;;;;13.00;99.90;;;;;;5136357;27;20277;-44
2023/07/22 04:00:48;;;;;;;;;;;13.10;99.90;;;;;;5136306;27;19908;-46
2023/07/22 04:03:13;;;;;;;;;;;13.00;99.90;;;;;;5135728;27;20002;-44
2023/07/22 04:05:39;;;;;;;;;;;13.10;99.90;;;;;;5136338;27;19974;-42
2023/07/22 04:08:04;;;;;;;;;;;13.10;99.90;;;;;;5141125;27;20371;-43
2023/07/22 04:10:30;;;;;;;;;;;13.10;99.90;;;;;;5156437;27;19959;-44
2023/07/22 04:12:55;;;;;;;;;;;13.20;99.90;;;;;;5156881;27;20277;-43
2023/07/22 04:15:21;;;;;;;;;;;13.20;99.90;;;;;;5156554;27;19963;-50
2023/07/22 04:17:46;;;;;;;;;;;13.20;99.90;;;;;;5155798;27;19911;-43
2023/07/22 04:20:12;;;;;;;;;;;13.20;99.90;;;;;;5156742;27;19911;-43
2023/07/22 04:22:37;;;;;;;;;;;13.30;99.90;;;;;;5156580;27;19915;-44
2023/07/22 04:25:04;;;;;;;;;;;13.30;99.90;;;;;;5155971;27;19987;-46
2023/07/22 04:27:29;;;;;;;;;;;13.40;99.90;;;;;;5156274;27;19918;-44
2023/07/22 04:29:55;;;;;;;;;;;13.40;99.90;;;;;;5156396;27;19907;-42
2023/07/22 04:32:21;;;;;;;;;;;13.40;99.90;;;;;;5155967;27;19907;-42
2023/07/22 04:34:46;;;;;;;;;;;13.50;99.90;;;;;;5156466;27;20280;-42
2023/07/22 04:37:12;;;;;;;;;;;13.50;99.90;;;;;;5155872;27;19915;-44
2023/07/22 04:39:38;;;;;;;;;;;13.50;99.90;;;;;;5147042;27;19915;-45
2023/07/22 04:42:04;;;;;;;;;;;13.60;99.90;;;;;;5134750;27;19919;-43
2023/07/22 04:44:29;;;;;;;;;;;13.60;99.90;;;;;;5134735;27;20358;-44
2023/07/22 04:46:55;;;;;;;;;;;13.70;99.90;;;;;;5135465;27;20003;-48
2023/07/22 04:49:21;;;;;;;;;;;13.70;99.90;;;;;;5135222;27;19908;-44
2023/07/22 04:51:47;;;;;;;;;;;13.70;99.90;;;;;;5142328;27;19907;-45
2023/07/22 04:54:13;;;;;;;;;;;13.80;99.90;;;;;;5124843;27;19954;-48
2023/07/22 04:56:39;;;;;;;;;;;13.80;99.90;;;;;;5121502;27;19957;-49
2023/07/22 04:59:04;;;;;;;;;;;13.90;99.90;;;;;;5123735;27;19931;-43
2023/07/22 05:01:30;;;;;;;;;;;13.90;99.90;;;;;;5116330;27;19953;-43
2023/07/22 05:03:55;;;;;;;;;;;13.90;99.90;;;;;;5125150;27;19907;-43
2023/07/22 05:06:21;;;;;;;;;;;14.00;99.90;;;;;;5122354;27;20395;-48
2023/07/22 05:08:46;;;;;;;;;;;14.00;99.90;;;;;;5114350;28;19919;-44
2023/07/22 05:11:12;;;;;;;;;;;14.00;99.90;;;;;;5114162;28;19914;-44
2023/07/22 05:13:37;;;;;;;;;;;14.00;99.90;;;;;;5113861;27;20386;-43
2023/07/22 05:16:03;;;;;;;;;;;14.10;99.90;;;;;;5114255;28;19924;-47
2023/07/22 05:18:28;;;;;;;;;;;14.10;99.90;;;;;;5114050;28;19912;-43
2023/07/22 05:20:54;;;;;;;;;;;14.10;99.90;;;;;;5113734;28;20132;-45
2023/07/22 05:23:19;;;;;;;;;;;14.10;99.90;;;;;;5118396;27;19915;-44
2023/07/22 05:25:50;;;;;;;;;;;14.10;99.90;;;;;;5134192;27;19912;-46
2023/07/22 05:28:15;;;;;;;;;;;14.10;99.90;;;;;;5134247;27;19960;-43
2023/07/22 05:30:41;;;;;;;;;;;14.10;99.90;;;;;;5134736;27;19907;-47
2023/07/22 05:33:06;;;;;;;;;;;14.10;99.90;;;;;;5134017;27;19907;-43
2023/07/22 05:35:32;;;;;;;;;;;14.10;99.90;;;;;;5125521;27;20350;-43
2023/07/22 05:37:57;;;;;;;;;;;14.10;99.90;;;;;;5113198;28;19919;-44
2023/07/22 05:40:23;;;;;;;;;;;14.10;99.90;;;;;;5113521;28;20396;-47
2023/07/22 05:42:48;;;;;;;;;;;14.20;99.90;;;;;;5111086;27;19935;-43
2023/07/22 05:45:16;;;;;;;;;;;14.20;99.90;;;;;;5123523;27;19911;-43
2023/07/22 05:47:41;;;;;;;;;;;14.20;99.90;;;;;;5120223;27;20000;-43
2023/07/22 05:50:07;;;;;;;;;;;14.20;99.90;;;;;;5127928;27;19973;-43
2023/07/22 05:52:32;;;;;;;;;;;14.20;99.90;;;;;;5122301;27;19955;-43
2023/07/22 05:54:58;;;;;;;;;;;14.30;99.90;;;;;;5123221;27;19930;-46
2023/07/22 05:57:23;;;;;;;;;;;14.30;99.90;;;;;;5117112;27;19922;-45
2023/07/22 05:59:49;;;;;;;;;;;14.30;99.90;;;;;;5118931;27;19911;-42
2023/07/22 06:02:17;;;;;;;;;;;14.40;99.90;;;;;;5126334;27;19990;-43
2023/07/22 06:04:42;;;;;;;;;;;14.40;99.90;;;;;;5123483;27;19920;-44
2023/07/22 06:07:08;;;;;;;;;;;14.40;99.90;;;;;;5117525;27;19916;-43
2023/07/22 06:09:33;;;;;;;;;;;14.50;99.90;;;;;;5124307;27;20015;-45
2023/07/22 06:11:59;;;;;;;;;;;14.40;99.90;;;;;;5133619;27;19912;-43
2023/07/22 06:14:24;;;;;;;;;;;14.50;99.90;;;;;;5133673;27;20892;-44
2023/07/22 06:16:49;;;;;;;;;;;14.50;99.90;;;;;;5133419;27;19990;-45
2023/07/22 06:19:15;;;;;;;;;;;14.60;99.90;;;;;;5133822;27;20296;-42
2023/07/22 06:21:40;;;;;;;;;;;14.60;99.90;;;;;;5116674;28;19911;-44
2023/07/22 06:24:06;;;;;;;;;;;14.60;99.90;;;;;;5112801;28;20304;-44
2023/07/22 06:26:31;;;;;;;;;;;14.70;99.90;;;;;;5113209;28;19997;-45
2023/07/22 06:28:57;;;;;;;;;;;14.70;99.90;;;;;;5112997;28;20359;-43
2023/07/22 06:31:22;;;;;;;;;;;14.80;99.90;;;;;;5116095;27;19919;-43
2023/07/22 06:33:48;;;;;;;;;;;14.80;99.90;;;;;;5113152;28;19950;-44
2023/07/22 06:36:14;;;;;;;;;;;14.80;99.90;;;;;;5112821;28;19920;-44
2023/07/22 06:38:39;;;;;;;;;;;14.90;99.90;;;;;;5112752;28;19946;-43
2023/07/22 06:41:05;;;;;;;;;;;14.90;99.90;;;;;;5115466;28;19912;-43
2023/07/22 06:43:30;;;;;;;;;;;15.00;99.90;;;;;;5123079;28;20002;-44
2023/07/22 06:45:56;;;;;;;;;;;15.00;99.90;;;;;;5116263;28;19918;-44
2023/07/22 06:48:22;;;;;;;;;;;15.00;99.90;;;;;;5123103;28;19914;-43
2023/07/22 06:50:48;;;;;;;;;;;15.10;99.90;;;;;;5115155;28;19916;-48
2023/07/22 06:53:14;;;;;;;;;;;15.20;99.90;;;;;;5116257;28;19969;-43
2023/07/22 06:55:40;;;;;;;;;;;15.30;99.90;;;;;;5112640;28;20275;-45
2023/07/22 06:58:05;;;;;;;;;;;15.30;99.90;;;;;;5111197;28;20010;-43
2023/07/22 07:00:31;;;;;;;;;;;15.50;99.90;;;;;;5115017;28;19994;-43
2023/07/22 07:02:56;;;;;;;;;;;15.50;99.90;;;;;;5112735;27;19912;-44
2023/07/22 07:05:22;;;;;;;;;;;15.70;99.90;;;;;;5116236;27;19959;-48
2023/07/22 07:07:48;;;;;;;;;;;15.70;99.90;;;;;;5124893;27;19915;-43
2023/07/22 07:10:14;;;;;;;;;;;15.80;99.90;;;;;;5116232;28;20028;-45
2023/07/22 07:12:39;;;;;;;;;;;15.90;99.90;;;;;;5118292;27;19911;-45
2023/07/22 07:15:05;;;;;;;;;;;15.90;99.90;;;;;;5125260;27;19920;-43
2023/07/22 07:17:31;;;;;;;;;;;16.00;99.90;;;;;;5127925;27;20281;-43
2023/07/22 07:19:56;;;;;;;;;;;16.00;99.90;;;;;;5121943;27;19968;-44
2023/07/22 07:22:22;;;;;;;;;;;16.10;99.90;;;;;;5116532;28;20278;-44
2023/07/22 07:24:47;;;;;;;;;;;16.10;99.90;;;;;;5116002;27;20289;-45
2023/07/22 07:27:13;;;;;;;;;;;16.20;99.90;;;;;;5121519;27;19915;-44
2023/07/22 07:29:38;;;;;;;;;;;16.30;99.90;;;;;;5119393;27;19965;-43
2023/07/22 07:32:04;;;;;;;;;;;16.40;99.90;;;;;;5135873;27;19919;-45
2023/07/22 07:34:30;;;;;;;;;;;16.30;99.90;;;;;;5136255;27;20012;-45
2023/07/22 07:36:55;;;;;;;;;;;16.30;99.90;;;;;;5130533;27;19916;-45
2023/07/22 07:39:21;;;;;;;;;;;16.30;99.90;;;;;;5116153;28;19945;-43
2023/07/22 07:41:46;;;;;;;;;;;16.30;99.90;;;;;;5116079;27;19919;-43
2023/07/22 07:44:12;;;;;;;;;;;16.30;99.90;;;;;;5131170;27;19908;-44
2023/07/22 07:46:37;;;;;;;;;;;16.30;99.90;;;;;;5129897;27;20388;-45
2023/07/22 07:49:03;;;;;;;;;;;16.30;99.90;;;;;;5131384;27;19916;-47
2023/07/22 07:51:30;;;;;;;;;;;16.40;99.90;;;;;;5128278;27;20010;-44
2023/07/22 07:53:56;;;;;;;;;;;16.50;99.90;;;;;;5129337;27;19998;-43
2023/07/22 07:56:22;;;;;;;;;;;16.50;99.90;;;;;;5115353;27;19920;-44
2023/07/22 07:58:49;;;;;;;;;;;16.60;99.90;;;;;;5116062;27;19919;-44
2023/07/22 08:01:15;;;;;;;;;;;16.70;99.90;;;;;;5136052;27;20005;-46
2023/07/22 08:03:41;;;;;;;;;;;16.70;99.90;;;;;;5119719;27;19966;-43
2023/07/22 08:06:07;;;;;;;;;;;16.90;99.90;;;;;;5125199;27;19919;-43
2023/07/22 08:08:33;;;;;;;;;;;17.00;99.90;;;;;;5119500;27;19919;-44
2023/07/22 08:10:59;;;;;;;;;;;17.10;99.90;;;;;;5115692;28;19952;-44
2023/07/22 08:13:25;;;;;;;;;;;17.20;99.90;;;;;;5129749;27;19998;-43
2023/07/22 08:15:51;;;;;;;;;;;17.40;99.90;;;;;;5135494;27;20018;-44
2023/07/22 08:18:16;;;;;;;;;;;17.50;99.90;;;;;;5129985;27;19918;-44
2023/07/22 08:20:42;;;;;;;;;;;17.60;99.90;;;;;;5126179;27;19915;-45
2023/07/22 08:23:07;;;;;;;;;;;17.60;99.90;;;;;;5144375;27;20356;-48
2023/07/22 08:25:33;;;;;;;;;;;17.70;99.90;;;;;;5147057;27;19918;-45
2023/07/22 08:27:59;;;;;;;;;;;17.70;99.90;;;;;;5112367;27;19916;-44
2023/07/22 08:30:24;;;;;;;;;;;17.70;99.90;;;;;;5131737;27;20116;-44
2023/07/22 08:32:50;;;;;;;;;;;17.70;99.90;;;;;;5133763;27;19947;-47
2023/07/22 08:35:17;;;;;;;;;;;17.80;99.90;;;;;;5133889;27;20380;-45
2023/07/22 08:37:43;;;;;;;;;;;17.90;99.90;;;;;;5135271;27;19914;-44
2023/07/22 08:40:08;;;;;;;;;;;17.90;99.90;;;;;;5136321;27;19907;-44
2023/07/22 08:42:35;;;;;;;;;;;17.90;99.90;;;;;;5119582;27;19923;-45
2023/07/22 08:45:01;;;;;;;;;;;18.00;99.90;;;;;;5135360;27;19951;-44
2023/07/22 08:47:28;;;;;;;;;;;18.00;99.90;;;;;;5135434;27;20401;-50
2023/07/22 08:49:57;;;;;;;;;;;18.00;99.90;;;;;;5125337;27;20023;-45
2023/07/22 08:52:22;;;;;;;;;;;17.90;99.90;;;;;;5135575;27;20342;-43
2023/07/22 08:54:49;;;;;;;;;;;17.90;99.90;;;;;;5135801;27;19915;-43
2023/07/22 08:57:15;;;;;;;;;;;17.90;99.90;;;;;;5134704;27;19965;-43
2023/07/22 08:59:41;;;;;;;;;;;17.80;99.90;;;;;;5116649;27;19914;-42
2023/07/22 09:02:11;;;;;;;;;;;17.90;99.90;;;;;;5115049;28;19994;-45
2023/07/22 09:04:37;;;;;;;;;;;17.90;99.90;;;;;;5114943;28;19952;-43
2023/07/22 09:07:03;;;;;;;;;;;17.80;99.90;;;;;;5115225;28;20315;-43
2023/07/22 09:09:28;;;;;;;;;;;17.80;99.90;;;;;;5115099;28;20341;-44
2023/07/22 09:11:55;;;;;;;;;;;17.70;99.90;;;;;;5131936;27;20280;-49
2023/07/22 09:14:21;;;;;;;;;;;17.80;99.90;;;;;;5135452;27;19908;-44
2023/07/22 09:16:46;;;;;;;;;;;17.70;99.90;;;;;;5135394;27;19908;-45
2023/07/22 09:19:12;;;;;;;;;;;17.70;99.90;;;;;;5135183;27;20423;-44
2023/07/22 09:21:37;;;;;;;;;;;17.70;99.90;;;;;;5135336;27;19919;-43
2023/07/22 09:24:19;;;;;;;;;;;17.70;99.90;;;;;;5135426;27;20043;-43
2023/07/22 09:26:44;;;;;;;;;;;17.70;99.90;;;;;;5122011;27;19907;-45
2023/07/22 09:29:10;;;;;;;;;;;17.70;99.90;;;;;;5114774;28;19999;-44
2023/07/22 09:31:47;;;;;;;;;;;17.70;99.90;;;;;;5114745;28;19912;-44
2023/07/22 09:34:13;;;;;;;;;;;17.50;99.90;;;;;;5114379;28;19943;-43
2023/07/22 09:37:05;;;;;;;;;;;17.50;99.90;;;;;;5114661;28;19958;-45
2023/07/22 09:39:30;;;;;;;;;;;17.50;99.90;;;;;;5114873;27;20034;-44
2023/07/22 09:41:56;;;;;;;;;;;17.60;99.90;;;;;;5134060;27;20060;-45
2023/07/22 09:44:22;;;;;;;;;;;17.50;99.90;;;;;;5134994;27;20370;-44
2023/07/22 09:46:50;;;;;;;;;;;17.60;99.90;;;;;;5134738;27;19947;-44
2023/07/22 09:49:17;;;;;;;;;;;17.50;99.90;;;;;;5135079;27;19907;-44
2023/07/22 09:51:43;;;;;;;;;;;17.50;99.90;;;;;;5134968;27;19908;-48
2023/07/22 09:54:08;;;;;;;;;;;17.40;99.90;;;;;;5133778;27;19937;-46
2023/07/22 09:56:44;;;;;;;;;;;17.30;99.90;;;;;;5134999;27;19961;-43
2023/07/22 09:59:11;;;;;;;;;;;17.20;99.90;;;;;;5134775;27;19915;-43
2023/07/22 10:01:38;;;;;;;;;;;17.10;99.90;;;;;;5127791;27;19919;-43
2023/07/22 10:04:04;;;;;;;;;;;17.20;99.90;;;;;;5134694;27;20361;-44
2023/07/22 10:06:30;;;;;;;;;;;17.20;99.90;;;;;;5134336;27;19908;-45
2023/07/22 10:08:56;;;;;;;;;;;17.30;99.90;;;;;;5134006;27;19914;-44
2023/07/22 10:11:26;;;;;;;;;;;17.40;99.90;;;;;;5134530;27;19908;-44
2023/07/22 10:13:52;;;;;;;;;;;17.50;99.90;;;;;;5134492;27;20317;-43
2023/07/22 10:16:18;;;;;;;;;;;17.70;99.90;;;;;;5134127;27;20499;-43
2023/07/22 10:18:45;;;;;;;;;;;17.80;99.90;;;;;;5115926;28;20010;-45
2023/07/22 10:21:11;;;;;;;;;;;17.90;99.90;;;;;;5116944;27;19907;-43
2023/07/22 10:23:38;;;;;;;;;;;18.00;99.90;;;;;;5118862;27;19918;-49
2023/07/22 10:26:04;;;;;;;;;;;18.10;99.90;;;;;;5120061;27;20020;-43
2023/07/22 10:28:30;;;;;;;;;;;18.10;99.90;;;;;;5127097;27;19918;-43
2023/07/22 10:30:57;;;;;;;;;;;18.10;99.90;;;;;;5130000;27;19908;-46
2023/07/22 10:33:22;;;;;;;;;;;18.10;99.90;;;;;;5122961;28;19911;-45
2023/07/22 10:36:04;;;;;;;;;;;18.10;99.90;;;;;;5127330;27;19927;-44
2023/07/22 10:38:30;;;;;;;;;;;18.00;99.90;;;;;;5134985;27;19918;-43
2023/07/22 10:40:56;;;;;;;;;;;18.00;99.90;;;;;;5138384;27;19908;-44
2023/07/22 10:43:26;;;;;;;;;;;18.00;99.90;;;;;;5138251;27;19954;-45
2023/07/22 10:45:53;;;;;;;;;;;18.00;99.90;;;;;;5119317;27;19911;-46
2023/07/22 10:48:18;;;;;;;;;;;17.90;99.90;;;;;;5117886;28;19960;-44
2023/07/22 10:50:46;;;;;;;;;;;17.90;99.90;;;;;;5123166;27;19915;-43
2023/07/22 10:53:24;;;;;;;;;;;17.90;99.90;;;;;;5138454;27;20345;-44
2023/07/22 10:56:02;;;;;;;;;;;17.90;99.90;;;;;;5119364;27;20013;-44
2023/07/22 10:58:30;;;;;;;;;;;17.90;99.90;;;;;;5117427;28;19908;-44
2023/07/22 11:00:56;;;;;;;;;;;17.90;99.90;;;;;;5117781;28;19918;-46
2023/07/22 11:03:21;;;;;;;;;;;17.90;99.90;;;;;;5117754;27;19912;-43
2023/07/22 11:05:52;;;;;;;;;;;17.80;99.90;;;;;;5133486;27;20357;-46
2023/07/22 11:08:35;;;;;;;;;;;17.80;99.90;;;;;;5124958;27;19911;-43
2023/07/22 11:11:01;;;;;;;;;;;17.70;99.90;;;;;;5127686;27;19918;-47
2023/07/22 11:13:27;;;;;;;;;;;17.70;99.90;;;;;;5120050;27;19931;-43
2023/07/22 11:15:52;;;;;;;;;;;17.60;99.90;;;;;;5123206;27;20006;-43
2023/07/22 11:18:18;;;;;;;;;;;17.60;99.90;;;;;;5124868;27;19953;-44
2023/07/22 11:20:43;;;;;;;;;;;17.60;99.90;;;;;;5117933;27;19915;-45
2023/07/22 11:23:09;;;;;;;;;;;17.50;99.90;;;;;;5117315;27;20004;-44
2023/07/22 11:25:34;;;;;;;;;;;17.40;99.90;;;;;;5117433;27;19915;-43
2023/07/22 11:28:00;;;;;;;;;;;17.30;99.90;;;;;;5117555;27;19955;-43
2023/07/22 11:30:26;;;;;;;;;;;17.20;99.90;;;;;;5118399;27;19965;-43
2023/07/22 11:32:52;;;;;;;;;;;17.10;99.90;;;;;;5116651;27;19918;-43
2023/07/22 11:35:19;;;;;;;;;;;17.00;99.90;;;;;;5124687;27;19923;-41
2023/07/22 11:37:44;;;;;;;;;;;16.90;99.90;;;;;;5129759;27;20002;-43
2023/07/22 11:40:13;;;;;;;;;;;16.80;99.90;;;;;;5121272;27;20006;-45
2023/07/22 11:42:39;;;;;;;;;;;16.70;99.90;;;;;;5128669;27;20339;-44
2023/07/22 11:45:05;;;;;;;;;;;16.70;99.90;;;;;;5118632;27;19964;-44
2023/07/22 11:47:31;;;;;;;;;;;16.60;99.90;;;;;;5119651;27;20005;-43
2023/07/22 11:49:56;;;;;;;;;;;16.50;99.90;;;;;;5134097;27;19929;-43
2023/07/22 11:52:22;;;;;;;;;;;16.40;99.90;;;;;;5150763;27;19972;-43
2023/07/22 11:54:47;;;;;;;;;;;16.30;99.90;;;;;;5145944;27;19919;-43
2023/07/22 11:57:17;;;;;;;;;;;16.20;99.90;;;;;;5133605;27;19911;-43
2023/07/22 11:59:49;;;;;;;;;;;16.20;99.90;;;;;;5133474;27;19938;-44
2023/07/22 12:02:16;;;;;;;;;;;16.20;99.90;;;;;;5132844;27;19918;-44
2023/07/22 12:04:42;;;;;;;;;;;16.20;99.90;;;;;;5134906;27;19908;-44
2023/07/22 12:07:27;;;;;;;;;;;16.30;99.90;;;;;;5136345;27;19915;-44
2023/07/22 12:09:54;;;;;;;;;;;16.30;99.90;;;;;;5136238;27;20074;-42
2023/07/22 12:12:19;;;;;;;;;;;16.30;99.90;;;;;;5155776;27;19986;-42
2023/07/22 12:14:45;;;;;;;;;;;16.40;99.90;;;;;;5156372;27;20401;-43
2023/07/22 12:17:10;;;;;;;;;;;16.50;99.90;;;;;;5156919;27;19919;-42
2023/07/22 12:19:36;;;;;;;;;;;16.40;99.90;;;;;;5156621;27;19907;-44
2023/07/22 12:22:02;;;;;;;;;;;16.50;99.90;;;;;;5154880;27;19907;-43
2023/07/22 12:24:27;;;;;;;;;;;16.50;99.90;;;;;;5135885;27;19911;-42
2023/07/22 12:26:53;;;;;;;;;;;16.50;99.90;;;;;;5130662;27;19916;-42
2023/07/22 12:29:19;;;;;;;;;;;16.50;99.90;;;;;;5135397;27;19963;-44
2023/07/22 12:31:44;;;;;;;;;;;16.60;99.90;;;;;;5156303;27;19911;-43
2023/07/22 12:34:10;;;;;;;;;;;16.60;99.90;;;;;;5156023;27;19918;-44
2023/07/22 12:36:35;;;;;;;;;;;16.60;99.90;;;;;;5155354;27;19915;-42
2023/07/22 12:39:01;;;;;;;;;;;16.60;99.90;;;;;;5156273;27;19907;-46
2023/07/22 12:41:26;;;;;;;;;;;16.60;99.90;;;;;;5137076;27;19995;-43
2023/07/22 12:43:52;;;;;;;;;;;16.50;99.90;;;;;;5136869;27;19910;-42
2023/07/22 12:46:17;;;;;;;;;;;16.40;99.90;;;;;;5137104;27;19912;-47
2023/07/22 12:48:43;;;;;;;;;;;16.40;99.90;;;;;;5135525;27;19908;-42
2023/07/22 12:51:09;;;;;;;;;;;16.30;99.90;;;;;;5118711;27;19915;-44
2023/07/22 12:53:35;;;;;;;;;;;16.30;99.90;;;;;;5155662;27;19911;-43
2023/07/22 12:56:03;;;;;;;;;;;16.20;99.90;;;;;;5156114;27;20018;-43
2023/07/22 12:58:28;;;;;;;;;;;16.20;99.90;;;;;;5155463;27;19907;-44
2023/07/22 13:00:54;;;;;;;;;;;16.10;99.90;;;;;;5154992;27;20014;-43
2023/07/22 13:03:19;;;;;;;;;;;16.10;99.90;;;;;;5140893;27;20015;-46
2023/07/22 13:05:45;;;;;;;;;;;16.00;99.90;;;;;;5124283;27;19908;-45
2023/07/22 13:08:10;;;;;;;;;;;16.00;99.90;;;;;;5143250;27;19911;-43
2023/07/22 13:10:38;;;;;;;;;;;16.00;99.90;;;;;;5142253;27;19912;-43
2023/07/22 13:13:04;;;;;;;;;;;16.00;99.90;;;;;;5151243;27;19940;-44
2023/07/22 13:15:29;;;;;;;;;;;16.00;99.90;;;;;;5154272;27;19927;-44
2023/07/22 13:17:55;;;;;;;;;;;15.90;99.90;;;;;;5134232;27;20014;-44
2023/07/22 13:20:20;;;;;;;;;;;15.90;99.90;;;;;;5134902;27;19933;-44
2023/07/22 13:22:46;;;;;;;;;;;15.80;99.90;;;;;;5153700;27;19918;-45
2023/07/22 13:25:11;;;;;;;;;;;15.80;99.90;;;;;;5155010;27;19907;-43
2023/07/22 13:27:38;;;;;;;;;;;15.80;99.90;;;;;;5155457;27;19907;-44
2023/07/22 13:30:07;;;;;;;;;;;15.80;99.90;;;;;;5155235;27;20337;-43
2023/07/22 13:32:33;;;;;;;;;;;15.70;99.90;;;;;;5145095;27;19938;-43
2023/07/22 13:34:58;;;;;;;;;;;15.70;99.90;;;;;;5133521;27;19934;-44
2023/07/22 13:37:23;;;;;;;;;;;15.70;99.90;;;;;;5117945;27;20323;-43
2023/07/22 13:39:49;;;;;;;;;;;15.80;99.90;;;;;;5127663;27;19915;-44
2023/07/22 13:42:14;;;;;;;;;;;15.80;99.90;;;;;;5132648;27;20462;-43
2023/07/22 13:44:40;;;;;;;;;;;15.90;99.90;;;;;;5133108;27;19922;-46
2023/07/22 13:47:05;;;;;;;;;;;16.00;99.90;;;;;;5132829;27;19934;-44
2023/07/22 13:49:31;;;;;;;;;;;16.00;99.90;;;;;;5132308;27;19912;-46
2023/07/22 13:51:56;;;;;;;;;;;16.00;99.90;;;;;;5133481;27;20267;-44
2023/07/22 13:54:22;;;;;;;;;;;16.10;99.90;;;;;;5132132;27;20007;-44
2023/07/22 13:56:47;;;;;;;;;;;16.20;99.90;;;;;;5129752;27;19915;-42
2023/07/22 13:59:13;;;;;;;;;;;16.30;99.90;;;;;;5137130;27;19962;-45
2023/07/22 14:01:39;;;;;;;;;;;16.50;99.90;;;;;;5137090;27;20003;-46
2023/07/22 14:04:04;;;;;;;;;;;16.60;99.90;;;;;;5124140;27;20507;-43
2023/07/22 14:06:31;;;;;;;;;;;16.70;99.90;;;;;;5133079;27;20266;-43
2023/07/22 14:08:56;;;;;;;;;;;16.70;99.90;;;;;;5133485;27;19911;-43
2023/07/22 14:11:22;;;;;;;;;;;16.80;99.90;;;;;;5132707;27;20274;-44